Oakville, CA

1:23 AM PDT on September 20, 2014 (GMT -0700)
Sonoma County | Change Station
CLOSE
Current Station
Airport
Location: Santa Rosa,
Elevation: 125 ft
Nearby Weather Stations

Elev 125 ft 38.50 °N, 122.81 °W | Updated 30 minutes ago

Partly Cloudy
Partly Cloudy
61 °F
Feels Like 61 °F
N
4
Wind Variable Wind from South

Today
High -- | Low -- °F
--% Chance of Precip.
Yesterday
High -- | Low -- °F
Precip. -- in
6:55 AM 7:09 PM
Waning Crescent, 13% visible
Pressure 29.86 in
Visibility 10.0 miles
Clouds Overcast 400 ft
Dew Point 59 °F
Humidity 93%
Rainfall 0.00 in
Snow Depth Not available.
UV 0 out of 12
Pollen 5.90 out of 12
Ozone Good
PM2.5 Good
Flu Activity Not available.
METAR KSTS 200753Z AUTO 17003KT 10SM OVC004 16/15 A2988 RMK AO2 SLP111 T01610150 402670133

More Conditions Fewer Conditions

Pressure 29.86 in
Visibility 10.0 miles
Clouds Overcast 400 ft
Dew Point 59 °F
Humidity 93%
Rainfall 0.00 in
Snow Depth Not available.
UV 0 out of 12
Pollen 5.90 out of 12
Ozone Good
PM2.5 Good
Flu Activity Not available.
METAR KSTS 200753Z AUTO 17003KT 10SM OVC004 16/15 A2988 RMK AO2 SLP111 T01610150 402670133

More Conditions Fewer Conditions

10-Day Weather Forecast

Almanac

Astronomy

Sep. 20, 2014 Rise Set
Actual Time 6:55 AM PDT 7:09 PM PDT
Civil Twilight 6:29 AM PDT 7:36 PM PDT
Nautical Twilight 5:58 AM PDT 8:06 PM PDT
Astronomical Twilight 5:26 AM PDT 8:38 PM PDT
Moon 3:41 AM PDT 5:14 PM PDT
Length of Visible Light 13h 06m
Length of Day
12h 13m
Tomorrow will be 2m 28s shorter.
Waning Crescent, 13% of the Moon is Illuminated
Today
Waning Crescent
Sep 24
New
Oct 1
First Quarter
Oct 8
Full
Oct 15
Last Quarter

Today's Extremes

State Highs State Lows

Community

WunderPhotos

Upload Photos

1,754,793 photos uploaded!

WunderBlogs® & News

Nearby

Air Quality

  Air Quality AQ Index Pollutant
Yesterday Good
OZONE
Yesterday Good
PM2.5
Current Good
PM2.5
Current Good
OZONE
Friday Good
PM2.5
Saturday Moderate
PM2.5
Sunday Moderate
PM2.5
Monday Moderate
PM2.5
Tuesday Moderate
PM2.5
Wednesday Moderate
PM2.5

Snow Depth

Station Depth Elevation
Leavitt Meadows 1 in 7200 ft
Monitor Pass 0 in 8350 ft
Tahoe City Cross 0 in 6750 ft
Summit Meadow 1 in 9122 ft
Sonora Pass 0 in 8800 ft

Earthquake Activity

City Distance Mag. Time & Date
Livermore, California 63 miles 2.6 3:37 AM PDT
2014-09-19
The Geysers, California 28 miles 2.5 11:29 PM PDT
2014-09-17
Minimum magnitude displayed is 2.5.

Coastal Water Temperatures

Place Temperature
San Francisco, CA 64.9 °F
Richmond, CA 66.9 °F
Port Chicago, CA 70.0 °F

Nearby Weather Stations